sensor_id;sensor_type;location;lat;lon;timestamp;P1;durP1;ratioP1;P2;durP2;ratioP2
56997;SDS011;42890;44.244;22.530;2023-09-18T00:00:28;19.58;;;15.40;;
56997;SDS011;42890;44.244;22.530;2023-09-18T00:02:55;20.70;;;15.23;;
56997;SDS011;42890;44.244;22.530;2023-09-18T00:05:21;20.92;;;15.43;;
56997;SDS011;42890;44.244;22.530;2023-09-18T00:07:47;19.60;;;15.15;;
56997;SDS011;42890;44.244;22.530;2023-09-18T00:10:13;20.17;;;16.02;;
56997;SDS011;42890;44.244;22.530;2023-09-18T00:12:40;18.88;;;15.57;;
56997;SDS011;42890;44.244;22.530;2023-09-18T00:15:06;17.38;;;15.48;;
56997;SDS011;42890;44.244;22.530;2023-09-18T00:17:35;18.45;;;14.35;;
56997;SDS011;42890;44.244;22.530;2023-09-18T00:20:02;24.20;;;16.00;;
56997;SDS011;42890;44.244;22.530;2023-09-18T00:22:31;17.38;;;14.55;;
56997;SDS011;42890;44.244;22.530;2023-09-18T00:24:57;22.20;;;15.60;;
56997;SDS011;42890;44.244;22.530;2023-09-18T00:27:23;20.08;;;16.13;;
56997;SDS011;42890;44.244;22.530;2023-09-18T00:29:49;25.80;;;16.95;;
56997;SDS011;42890;44.244;22.530;2023-09-18T00:32:16;21.45;;;16.90;;
56997;SDS011;42890;44.244;22.530;2023-09-18T00:34:42;25.40;;;16.88;;
56997;SDS011;42890;44.244;22.530;2023-09-18T00:37:08;19.33;;;16.35;;
56997;SDS011;42890;44.244;22.530;2023-09-18T00:39:37;25.10;;;16.20;;
56997;SDS011;42890;44.244;22.530;2023-09-18T00:42:03;30.10;;;16.13;;
56997;SDS011;42890;44.244;22.530;2023-09-18T00:44:29;18.63;;;15.85;;
56997;SDS011;42890;44.244;22.530;2023-09-18T00:46:55;18.25;;;16.13;;
56997;SDS011;42890;44.244;22.530;2023-09-18T00:49:22;17.98;;;15.60;;
56997;SDS011;42890;44.244;22.530;2023-09-18T00:51:50;20.08;;;15.80;;
56997;SDS011;42890;44.244;22.530;2023-09-18T00:54:16;18.60;;;15.02;;
56997;SDS011;42890;44.244;22.530;2023-09-18T00:56:43;18.58;;;15.55;;
56997;SDS011;42890;44.244;22.530;2023-09-18T00:59:10;23.25;;;14.63;;
56997;SDS011;42890;44.244;22.530;2023-09-18T01:01:36;17.50;;;15.27;;
56997;SDS011;42890;44.244;22.530;2023-09-18T01:04:02;19.13;;;15.10;;
56997;SDS011;42890;44.244;22.530;2023-09-18T01:06:29;17.88;;;14.35;;
56997;SDS011;42890;44.244;22.530;2023-09-18T01:08:55;21.92;;;14.50;;
56997;SDS011;42890;44.244;22.530;2023-09-18T01:14:14;20.85;;;15.40;;
56997;SDS011;42890;44.244;22.530;2023-09-18T01:17:01;25.23;;;16.60;;
56997;SDS011;42890;44.244;22.530;2023-09-18T01:22:04;19.00;;;16.17;;
56997;SDS011;42890;44.244;22.530;2023-09-18T01:24:31;20.65;;;16.02;;
56997;SDS011;42890;44.244;22.530;2023-09-18T01:26:58;18.38;;;15.05;;
56997;SDS011;42890;44.244;22.530;2023-09-18T01:29:24;17.23;;;15.43;;
56997;SDS011;42890;44.244;22.530;2023-09-18T01:31:50;18.17;;;15.73;;
56997;SDS011;42890;44.244;22.530;2023-09-18T01:34:18;20.98;;;16.02;;
56997;SDS011;42890;44.244;22.530;2023-09-18T01:36:45;21.10;;;15.68;;
56997;SDS011;42890;44.244;22.530;2023-09-18T01:39:12;21.65;;;14.73;;
56997;SDS011;42890;44.244;22.530;2023-09-18T01:41:38;17.55;;;15.85;;
56997;SDS011;42890;44.244;22.530;2023-09-18T01:44:04;18.70;;;14.98;;
56997;SDS011;42890;44.244;22.530;2023-09-18T01:46:31;20.83;;;15.50;;
56997;SDS011;42890;44.244;22.530;2023-09-18T01:49:01;19.23;;;16.08;;
56997;SDS011;42890;44.244;22.530;2023-09-18T01:51:27;18.83;;;16.80;;
56997;SDS011;42890;44.244;22.530;2023-09-18T01:53:53;34.30;;;15.98;;
56997;SDS011;42890;44.244;22.530;2023-09-18T01:56:20;17.55;;;15.73;;
56997;SDS011;42890;44.244;22.530;2023-09-18T01:58:46;22.13;;;16.55;;
56997;SDS011;42890;44.244;22.530;2023-09-18T02:01:12;21.65;;;16.33;;
56997;SDS011;42890;44.244;22.530;2023-09-18T02:03:38;17.95;;;16.02;;
56997;SDS011;42890;44.244;22.530;2023-09-18T02:06:09;23.90;;;16.20;;
56997;SDS011;42890;44.244;22.530;2023-09-18T02:08:35;21.13;;;17.40;;
56997;SDS011;42890;44.244;22.530;2023-09-18T02:11:02;18.10;;;16.40;;
56997;SDS011;42890;44.244;22.530;2023-09-18T02:13:29;23.30;;;17.00;;
56997;SDS011;42890;44.244;22.530;2023-09-18T02:15:56;21.25;;;17.70;;
56997;SDS011;42890;44.244;22.530;2023-09-18T02:18:22;21.05;;;17.40;;
56997;SDS011;42890;44.244;22.530;2023-09-18T02:20:48;20.67;;;16.58;;
56997;SDS011;42890;44.244;22.530;2023-09-18T02:23:17;18.25;;;15.55;;
56997;SDS011;42890;44.244;22.530;2023-09-18T02:25:44;23.63;;;16.48;;
56997;SDS011;42890;44.244;22.530;2023-09-18T02:28:10;18.13;;;16.08;;
56997;SDS011;42890;44.244;22.530;2023-09-18T02:30:36;18.33;;;15.75;;
56997;SDS011;42890;44.244;22.530;2023-09-18T02:33:02;19.27;;;15.82;;
56997;SDS011;42890;44.244;22.530;2023-09-18T02:35:29;18.27;;;15.63;;
56997;SDS011;42890;44.244;22.530;2023-09-18T02:37:55;22.77;;;16.55;;
56997;SDS011;42890;44.244;22.530;2023-09-18T02:40:22;19.60;;;16.23;;
56997;SDS011;42890;44.244;22.530;2023-09-18T02:42:48;22.73;;;15.98;;
56997;SDS011;42890;44.244;22.530;2023-09-18T02:45:14;19.83;;;16.80;;
56997;SDS011;42890;44.244;22.530;2023-09-18T02:47:40;18.45;;;16.60;;
56997;SDS011;42890;44.244;22.530;2023-09-18T02:50:07;19.13;;;16.75;;
56997;SDS011;42890;44.244;22.530;2023-09-18T02:52:35;18.10;;;16.10;;
56997;SDS011;42890;44.244;22.530;2023-09-18T02:55:02;23.40;;;16.83;;
56997;SDS011;42890;44.244;22.530;2023-09-18T02:57:28;23.23;;;17.02;;
56997;SDS011;42890;44.244;22.530;2023-09-18T02:59:54;24.52;;;18.30;;
56997;SDS011;42890;44.244;22.530;2023-09-18T03:02:20;22.40;;;17.77;;
56997;SDS011;42890;44.244;22.530;2023-09-18T03:04:46;21.27;;;17.80;;
56997;SDS011;42890;44.244;22.530;2023-09-18T03:07:13;24.13;;;17.90;;
56997;SDS011;42890;44.244;22.530;2023-09-18T03:09:39;20.20;;;17.65;;
56997;SDS011;42890;44.244;22.530;2023-09-18T03:12:05;22.23;;;18.73;;
56997;SDS011;42890;44.244;22.530;2023-09-18T03:14:31;32.40;;;17.10;;
56997;SDS011;42890;44.244;22.530;2023-09-18T03:16:58;23.23;;;17.40;;
56997;SDS011;42890;44.244;22.530;2023-09-18T03:19:24;20.30;;;17.40;;
56997;SDS011;42890;44.244;22.530;2023-09-18T03:21:51;31.02;;;17.67;;
56997;SDS011;42890;44.244;22.530;2023-09-18T03:24:18;20.50;;;17.45;;
56997;SDS011;42890;44.244;22.530;2023-09-18T03:26:44;20.42;;;18.02;;
56997;SDS011;42890;44.244;22.530;2023-09-18T03:29:10;20.20;;;17.10;;
56997;SDS011;42890;44.244;22.530;2023-09-18T03:31:36;18.55;;;16.83;;
56997;SDS011;42890;44.244;22.530;2023-09-18T03:34:02;18.77;;;16.42;;
56997;SDS011;42890;44.244;22.530;2023-09-18T03:36:28;19.90;;;16.80;;
56997;SDS011;42890;44.244;22.530;2023-09-18T03:38:54;22.67;;;16.90;;
56997;SDS011;42890;44.244;22.530;2023-09-18T03:41:20;18.08;;;15.63;;
56997;SDS011;42890;44.244;22.530;2023-09-18T03:43:47;20.88;;;16.90;;
56997;SDS011;42890;44.244;22.530;2023-09-18T03:46:14;17.67;;;15.98;;
56997;SDS011;42890;44.244;22.530;2023-09-18T03:48:40;21.48;;;17.17;;
56997;SDS011;42890;44.244;22.530;2023-09-18T03:51:06;19.30;;;17.25;;
56997;SDS011;42890;44.244;22.530;2023-09-18T03:53:37;19.75;;;17.75;;
56997;SDS011;42890;44.244;22.530;2023-09-18T03:56:03;19.90;;;17.75;;
56997;SDS011;42890;44.244;22.530;2023-09-18T03:58:29;19.75;;;17.75;;
56997;SDS011;42890;44.244;22.530;2023-09-18T04:00:55;18.98;;;16.98;;
56997;SDS011;42890;44.244;22.530;2023-09-18T04:03:22;19.95;;;18.25;;
56997;SDS011;42890;44.244;22.530;2023-09-18T04:05:48;20.25;;;16.98;;
56997;SDS011;42890;44.244;22.530;2023-09-18T04:08:14;21.17;;;17.40;;
56997;SDS011;42890;44.244;22.530;2023-09-18T04:10:40;29.00;;;16.67;;
56997;SDS011;42890;44.244;22.530;2023-09-18T04:13:06;22.23;;;16.63;;
56997;SDS011;42890;44.244;22.530;2023-09-18T04:15:33;19.70;;;15.82;;
56997;SDS011;42890;44.244;22.530;2023-09-18T04:18:03;18.80;;;17.05;;
56997;SDS011;42890;44.244;22.530;2023-09-18T04:20:30;18.50;;;16.67;;
56997;SDS011;42890;44.244;22.530;2023-09-18T04:25:41;18.83;;;16.85;;
56997;SDS011;42890;44.244;22.530;2023-09-18T04:28:07;17.90;;;15.93;;
56997;SDS011;42890;44.244;22.530;2023-09-18T04:30:33;24.35;;;20.55;;
56997;SDS011;42890;44.244;22.530;2023-09-18T04:32:59;24.15;;;20.80;;
56997;SDS011;42890;44.244;22.530;2023-09-18T04:35:26;22.38;;;16.77;;
56997;SDS011;42890;44.244;22.530;2023-09-18T04:37:54;25.95;;;20.63;;
56997;SDS011;42890;44.244;22.530;2023-09-18T04:40:21;20.48;;;18.38;;
56997;SDS011;42890;44.244;22.530;2023-09-18T04:42:49;19.63;;;16.77;;
56997;SDS011;42890;44.244;22.530;2023-09-18T04:45:15;21.35;;;16.52;;
56997;SDS011;42890;44.244;22.530;2023-09-18T04:47:41;18.10;;;15.88;;
56997;SDS011;42890;44.244;22.530;2023-09-18T04:50:07;17.85;;;16.00;;
56997;SDS011;42890;44.244;22.530;2023-09-18T04:52:37;21.33;;;15.82;;
56997;SDS011;42890;44.244;22.530;2023-09-18T04:55:05;17.42;;;15.63;;
56997;SDS011;42890;44.244;22.530;2023-09-18T04:57:32;20.70;;;16.15;;
56997;SDS011;42890;44.244;22.530;2023-09-18T04:59:59;18.15;;;16.30;;
56997;SDS011;42890;44.244;22.530;2023-09-18T05:02:25;19.23;;;17.00;;
56997;SDS011;42890;44.244;22.530;2023-09-18T05:04:51;18.13;;;16.33;;
56997;SDS011;42890;44.244;22.530;2023-09-18T05:07:18;20.13;;;15.65;;
56997;SDS011;42890;44.244;22.530;2023-09-18T05:09:44;23.35;;;16.90;;
56997;SDS011;42890;44.244;22.530;2023-09-18T05:12:11;17.42;;;15.68;;
56997;SDS011;42890;44.244;22.530;2023-09-18T05:14:39;18.40;;;16.55;;
56997;SDS011;42890;44.244;22.530;2023-09-18T05:17:06;19.42;;;15.75;;
56997;SDS011;42890;44.244;22.530;2023-09-18T05:19:32;20.08;;;15.95;;
56997;SDS011;42890;44.244;22.530;2023-09-18T05:21:58;17.42;;;15.60;;
56997;SDS011;42890;44.244;22.530;2023-09-18T05:24:24;16.73;;;14.90;;
56997;SDS011;42890;44.244;22.530;2023-09-18T05:26:52;21.17;;;15.90;;
56997;SDS011;42890;44.244;22.530;2023-09-18T05:29:19;16.88;;;15.35;;
56997;SDS011;42890;44.244;22.530;2023-09-18T05:31:45;19.17;;;14.73;;
56997;SDS011;42890;44.244;22.530;2023-09-18T05:34:12;18.52;;;15.18;;
56997;SDS011;42890;44.244;22.530;2023-09-18T05:36:38;17.52;;;14.00;;
56997;SDS011;42890;44.244;22.530;2023-09-18T05:39:05;16.38;;;14.02;;
56997;SDS011;42890;44.244;22.530;2023-09-18T05:41:36;15.20;;;13.80;;
56997;SDS011;42890;44.244;22.530;2023-09-18T05:44:02;14.88;;;13.07;;
56997;SDS011;42890;44.244;22.530;2023-09-18T05:46:30;15.10;;;13.48;;
56997;SDS011;42890;44.244;22.530;2023-09-18T05:48:56;18.67;;;12.70;;
56997;SDS011;42890;44.244;22.530;2023-09-18T05:51:23;14.57;;;11.80;;
56997;SDS011;42890;44.244;22.530;2023-09-18T05:53:49;17.85;;;11.68;;
56997;SDS011;42890;44.244;22.530;2023-09-18T05:56:15;15.65;;;11.48;;
56997;SDS011;42890;44.244;22.530;2023-09-18T05:58:42;14.50;;;11.18;;
56997;SDS011;42890;44.244;22.530;2023-09-18T06:01:08;13.63;;;10.52;;
56997;SDS011;42890;44.244;22.530;2023-09-18T06:03:34;14.80;;;10.00;;
56997;SDS011;42890;44.244;22.530;2023-09-18T06:06:10;11.02;;;9.82;;
56997;SDS011;42890;44.244;22.530;2023-09-18T06:08:36;12.23;;;10.18;;
56997;SDS011;42890;44.244;22.530;2023-09-18T06:11:02;15.63;;;9.70;;
56997;SDS011;42890;44.244;22.530;2023-09-18T06:13:28;16.17;;;10.00;;
56997;SDS011;42890;44.244;22.530;2023-09-18T06:15:55;15.35;;;9.43;;
56997;SDS011;42890;44.244;22.530;2023-09-18T06:18:21;10.75;;;9.65;;
56997;SDS011;42890;44.244;22.530;2023-09-18T06:20:48;10.38;;;9.38;;
56997;SDS011;42890;44.244;22.530;2023-09-18T06:23:14;12.90;;;9.02;;
56997;SDS011;42890;44.244;22.530;2023-09-18T06:25:40;12.40;;;9.65;;
56997;SDS011;42890;44.244;22.530;2023-09-18T06:28:06;15.27;;;9.75;;
56997;SDS011;42890;44.244;22.530;2023-09-18T06:30:33;10.90;;;9.55;;
56997;SDS011;42890;44.244;22.530;2023-09-18T06:33:01;14.00;;;9.40;;
56997;SDS011;42890;44.244;22.530;2023-09-18T06:35:29;13.20;;;9.23;;
56997;SDS011;42890;44.244;22.530;2023-09-18T06:37:55;11.52;;;9.32;;
56997;SDS011;42890;44.244;22.530;2023-09-18T06:40:23;11.18;;;8.73;;
56997;SDS011;42890;44.244;22.530;2023-09-18T06:42:50;8.73;;;7.82;;
56997;SDS011;42890;44.244;22.530;2023-09-18T06:45:17;12.32;;;8.25;;
56997;SDS011;42890;44.244;22.530;2023-09-18T06:47:43;9.25;;;8.30;;
56997;SDS011;42890;44.244;22.530;2023-09-18T06:50:09;15.43;;;7.60;;
56997;SDS011;42890;44.244;22.530;2023-09-18T06:52:37;11.13;;;8.15;;
56997;SDS011;42890;44.244;22.530;2023-09-18T06:55:03;13.48;;;8.23;;
56997;SDS011;42890;44.244;22.530;2023-09-18T06:57:30;8.85;;;7.95;;
56997;SDS011;42890;44.244;22.530;2023-09-18T06:59:56;7.90;;;7.10;;
56997;SDS011;42890;44.244;22.530;2023-09-18T07:02:22;20.13;;;7.13;;
56997;SDS011;42890;44.244;22.530;2023-09-18T07:04:48;9.75;;;6.70;;
56997;SDS011;42890;44.244;22.530;2023-09-18T07:07:15;9.57;;;6.40;;
56997;SDS011;42890;44.244;22.530;2023-09-18T07:09:41;7.03;;;6.15;;
56997;SDS011;42890;44.244;22.530;2023-09-18T07:12:08;8.85;;;6.80;;
56997;SDS011;42890;44.244;22.530;2023-09-18T07:14:35;8.27;;;6.07;;
56997;SDS011;42890;44.244;22.530;2023-09-18T07:17:01;9.10;;;7.13;;
56997;SDS011;42890;44.244;22.530;2023-09-18T07:19:27;8.27;;;6.78;;
56997;SDS011;42890;44.244;22.530;2023-09-18T07:21:54;15.52;;;6.80;;
56997;SDS011;42890;44.244;22.530;2023-09-18T07:24:20;9.40;;;6.68;;
56997;SDS011;42890;44.244;22.530;2023-09-18T07:26:46;9.27;;;6.55;;
56997;SDS011;42890;44.244;22.530;2023-09-18T07:29:13;13.57;;;12.10;;
56997;SDS011;42890;44.244;22.530;2023-09-18T07:31:40;35.92;;;30.38;;
56997;SDS011;42890;44.244;22.530;2023-09-18T07:34:07;15.20;;;12.60;;
56997;SDS011;42890;44.244;22.530;2023-09-18T07:36:33;10.73;;;8.48;;
56997;SDS011;42890;44.244;22.530;2023-09-18T07:38:59;8.00;;;7.00;;
56997;SDS011;42890;44.244;22.530;2023-09-18T07:41:25;15.48;;;13.93;;
56997;SDS011;42890;44.244;22.530;2023-09-18T07:43:51;15.00;;;10.70;;
56997;SDS011;42890;44.244;22.530;2023-09-18T07:46:18;10.23;;;6.38;;
56997;SDS011;42890;44.244;22.530;2023-09-18T07:48:44;8.32;;;6.40;;
56997;SDS011;42890;44.244;22.530;2023-09-18T07:51:11;7.50;;;6.68;;
56997;SDS011;42890;44.244;22.530;2023-09-18T07:53:37;7.43;;;6.05;;
56997;SDS011;42890;44.244;22.530;2023-09-18T07:56:03;13.23;;;7.05;;
56997;SDS011;42890;44.244;22.530;2023-09-18T07:58:30;8.18;;;6.70;;
56997;SDS011;42890;44.244;22.530;2023-09-18T08:00:58;7.20;;;6.38;;
56997;SDS011;42890;44.244;22.530;2023-09-18T08:03:25;7.78;;;6.95;;
56997;SDS011;42890;44.244;22.530;2023-09-18T08:05:52;8.07;;;6.35;;
56997;SDS011;42890;44.244;22.530;2023-09-18T08:08:19;10.75;;;6.50;;
56997;SDS011;42890;44.244;22.530;2023-09-18T08:10:46;7.63;;;6.70;;
56997;SDS011;42890;44.244;22.530;2023-09-18T08:13:12;12.45;;;6.82;;
56997;SDS011;42890;44.244;22.530;2023-09-18T08:15:39;7.28;;;6.43;;
56997;SDS011;42890;44.244;22.530;2023-09-18T08:18:05;9.68;;;5.75;;
56997;SDS011;42890;44.244;22.530;2023-09-18T08:20:31;10.02;;;6.00;;
56997;SDS011;42890;44.244;22.530;2023-09-18T08:22:58;13.02;;;6.90;;
56997;SDS011;42890;44.244;22.530;2023-09-18T08:25:26;8.52;;;5.78;;
56997;SDS011;42890;44.244;22.530;2023-09-18T08:27:52;11.02;;;5.53;;
56997;SDS011;42890;44.244;22.530;2023-09-18T08:30:18;8.65;;;5.65;;
56997;SDS011;42890;44.244;22.530;2023-09-18T08:32:47;15.45;;;14.05;;
56997;SDS011;42890;44.244;22.530;2023-09-18T08:35:13;9.32;;;6.10;;
56997;SDS011;42890;44.244;22.530;2023-09-18T08:37:40;7.28;;;5.20;;
56997;SDS011;42890;44.244;22.530;2023-09-18T08:40:07;6.35;;;5.05;;
56997;SDS011;42890;44.244;22.530;2023-09-18T08:42:36;6.95;;;5.18;;
56997;SDS011;42890;44.244;22.530;2023-09-18T08:45:06;9.25;;;5.20;;
56997;SDS011;42890;44.244;22.530;2023-09-18T08:47:34;7.30;;;5.20;;
56997;SDS011;42890;44.244;22.530;2023-09-18T08:50:01;7.78;;;5.07;;
56997;SDS011;42890;44.244;22.530;2023-09-18T08:52:27;9.15;;;4.68;;
56997;SDS011;42890;44.244;22.530;2023-09-18T08:54:53;8.93;;;6.47;;
56997;SDS011;42890;44.244;22.530;2023-09-18T08:57:21;8.35;;;4.72;;
56997;SDS011;42890;44.244;22.530;2023-09-18T08:59:48;14.05;;;5.03;;
56997;SDS011;42890;44.244;22.530;2023-09-18T09:02:14;7.85;;;4.88;;
56997;SDS011;42890;44.244;22.530;2023-09-18T09:04:40;7.28;;;4.68;;
56997;SDS011;42890;44.244;22.530;2023-09-18T09:07:06;6.72;;;4.30;;
56997;SDS011;42890;44.244;22.530;2023-09-18T09:09:33;6.85;;;4.80;;
56997;SDS011;42890;44.244;22.530;2023-09-18T09:11:59;12.13;;;4.35;;
56997;SDS011;42890;44.244;22.530;2023-09-18T09:14:26;5.82;;;4.80;;
56997;SDS011;42890;44.244;22.530;2023-09-18T09:16:55;7.53;;;4.80;;
56997;SDS011;42890;44.244;22.530;2023-09-18T09:19:30;5.88;;;4.40;;
56997;SDS011;42890;44.244;22.530;2023-09-18T09:24:44;7.95;;;4.55;;
56997;SDS011;42890;44.244;22.530;2023-09-18T09:27:10;6.63;;;5.10;;
56997;SDS011;42890;44.244;22.530;2023-09-18T09:29:36;7.95;;;6.90;;
56997;SDS011;42890;44.244;22.530;2023-09-18T09:32:12;6.22;;;5.03;;
56997;SDS011;42890;44.244;22.530;2023-09-18T09:34:40;8.90;;;4.32;;
56997;SDS011;42890;44.244;22.530;2023-09-18T09:37:06;8.85;;;4.20;;
56997;SDS011;42890;44.244;22.530;2023-09-18T09:39:32;6.00;;;4.72;;
56997;SDS011;42890;44.244;22.530;2023-09-18T09:42:02;8.93;;;5.78;;
56997;SDS011;42890;44.244;22.530;2023-09-18T09:44:32;62.05;;;57.22;;
56997;SDS011;42890;44.244;22.530;2023-09-18T09:46:59;27.23;;;24.60;;
56997;SDS011;42890;44.244;22.530;2023-09-18T09:49:25;5.55;;;4.90;;
56997;SDS011;42890;44.244;22.530;2023-09-18T09:51:58;7.95;;;4.38;;
56997;SDS011;42890;44.244;22.530;2023-09-18T09:54:34;8.30;;;3.90;;
56997;SDS011;42890;44.244;22.530;2023-09-18T09:57:02;6.18;;;4.35;;
56997;SDS011;42890;44.244;22.530;2023-09-18T09:59:29;5.72;;;4.15;;
56997;SDS011;42890;44.244;22.530;2023-09-18T10:01:58;6.10;;;4.53;;
56997;SDS011;42890;44.244;22.530;2023-09-18T10:04:24;9.35;;;3.60;;
56997;SDS011;42890;44.244;22.530;2023-09-18T10:06:52;8.77;;;4.78;;
56997;SDS011;42890;44.244;22.530;2023-09-18T10:09:22;10.30;;;4.22;;
56997;SDS011;42890;44.244;22.530;2023-09-18T10:11:49;9.05;;;4.57;;
56997;SDS011;42890;44.244;22.530;2023-09-18T10:14:20;11.43;;;5.00;;
56997;SDS011;42890;44.244;22.530;2023-09-18T10:16:49;5.20;;;4.63;;
56997;SDS011;42890;44.244;22.530;2023-09-18T10:24:20;6.88;;;4.40;;
56997;SDS011;42890;44.244;22.530;2023-09-18T10:26:51;7.43;;;4.32;;
56997;SDS011;42890;44.244;22.530;2023-09-18T10:29:21;9.00;;;5.03;;
56997;SDS011;42890;44.244;22.530;2023-09-18T10:31:51;7.10;;;4.50;;
56997;SDS011;42890;44.244;22.530;2023-09-18T10:34:21;8.75;;;4.70;;
56997;SDS011;42890;44.244;22.530;2023-09-18T10:36:49;7.50;;;4.78;;
56997;SDS011;42890;44.244;22.530;2023-09-18T10:39:16;7.65;;;5.15;;
56997;SDS011;42890;44.244;22.530;2023-09-18T10:41:49;9.90;;;6.40;;
56997;SDS011;42890;44.244;22.530;2023-09-18T10:44:17;7.78;;;5.10;;
56997;SDS011;42890;44.244;22.530;2023-09-18T10:46:44;11.30;;;6.50;;
56997;SDS011;42890;44.244;22.530;2023-09-18T10:49:10;9.80;;;6.97;;
56997;SDS011;42890;44.244;22.530;2023-09-18T10:51:38;7.05;;;5.47;;
56997;SDS011;42890;44.244;22.530;2023-09-18T10:54:10;7.95;;;5.45;;
56997;SDS011;42890;44.244;22.530;2023-09-18T10:56:36;10.07;;;4.95;;
56997;SDS011;42890;44.244;22.530;2023-09-18T10:59:06;9.18;;;5.38;;
56997;SDS011;42890;44.244;22.530;2023-09-18T11:01:32;10.75;;;5.95;;
56997;SDS011;42890;44.244;22.530;2023-09-18T11:04:00;7.68;;;5.97;;
56997;SDS011;42890;44.244;22.530;2023-09-18T11:06:27;7.63;;;5.70;;
56997;SDS011;42890;44.244;22.530;2023-09-18T11:09:03;10.27;;;5.30;;
56997;SDS011;42890;44.244;22.530;2023-09-18T11:11:30;8.73;;;4.93;;
56997;SDS011;42890;44.244;22.530;2023-09-18T11:13:58;11.82;;;4.70;;
56997;SDS011;42890;44.244;22.530;2023-09-18T11:21:27;7.88;;;3.72;;
56997;SDS011;42890;44.244;22.530;2023-09-18T11:24:00;10.68;;;4.55;;
56997;SDS011;42890;44.244;22.530;2023-09-18T11:26:29;6.03;;;3.78;;
56997;SDS011;42890;44.244;22.530;2023-09-18T11:28:58;7.68;;;4.00;;
56997;SDS011;42890;44.244;22.530;2023-09-18T11:34:29;5.22;;;3.50;;
56997;SDS011;42890;44.244;22.530;2023-09-18T11:37:00;5.10;;;3.78;;
56997;SDS011;42890;44.244;22.530;2023-09-18T11:39:35;6.70;;;3.70;;
56997;SDS011;42890;44.244;22.530;2023-09-18T11:44:38;6.28;;;3.65;;
56997;SDS011;42890;44.244;22.530;2023-09-18T11:47:11;6.35;;;4.05;;
56997;SDS011;42890;44.244;22.530;2023-09-18T11:49:45;7.10;;;4.63;;
56997;SDS011;42890;44.244;22.530;2023-09-18T11:52:15;8.93;;;4.50;;
56997;SDS011;42890;44.244;22.530;2023-09-18T11:54:42;6.90;;;4.00;;
56997;SDS011;42890;44.244;22.530;2023-09-18T11:57:08;6.63;;;4.50;;
56997;SDS011;42890;44.244;22.530;2023-09-18T11:59:38;5.45;;;4.50;;
56997;SDS011;42890;44.244;22.530;2023-09-18T12:02:06;6.18;;;5.30;;
56997;SDS011;42890;44.244;22.530;2023-09-18T12:04:33;7.60;;;5.35;;
56997;SDS011;42890;44.244;22.530;2023-09-18T12:07:00;11.82;;;5.85;;
56997;SDS011;42890;44.244;22.530;2023-09-18T12:09:28;11.32;;;5.38;;
56997;SDS011;42890;44.244;22.530;2023-09-18T12:11:54;8.88;;;4.88;;
56997;SDS011;42890;44.244;22.530;2023-09-18T12:14:22;9.52;;;5.55;;
56997;SDS011;42890;44.244;22.530;2023-09-18T12:16:49;30.52;;;5.45;;
56997;SDS011;42890;44.244;22.530;2023-09-18T12:19:18;7.25;;;5.50;;
56997;SDS011;42890;44.244;22.530;2023-09-18T12:21:46;7.40;;;5.85;;
56997;SDS011;42890;44.244;22.530;2023-09-18T12:24:13;16.17;;;6.28;;
56997;SDS011;42890;44.244;22.530;2023-09-18T12:26:39;6.90;;;6.20;;
56997;SDS011;42890;44.244;22.530;2023-09-18T12:29:06;12.07;;;6.07;;
56997;SDS011;42890;44.244;22.530;2023-09-18T12:31:33;6.63;;;5.60;;
56997;SDS011;42890;44.244;22.530;2023-09-18T12:33:59;7.25;;;4.47;;
56997;SDS011;42890;44.244;22.530;2023-09-18T12:36:25;5.28;;;4.38;;
56997;SDS011;42890;44.244;22.530;2023-09-18T12:38:57;8.27;;;4.65;;
56997;SDS011;42890;44.244;22.530;2023-09-18T12:41:25;8.38;;;4.28;;
56997;SDS011;42890;44.244;22.530;2023-09-18T12:43:52;5.72;;;4.28;;
56997;SDS011;42890;44.244;22.530;2023-09-18T12:46:19;7.93;;;5.13;;
56997;SDS011;42890;44.244;22.530;2023-09-18T12:48:47;9.98;;;5.50;;
56997;SDS011;42890;44.244;22.530;2023-09-18T12:51:13;7.28;;;4.90;;
56997;SDS011;42890;44.244;22.530;2023-09-18T12:53:41;8.25;;;4.32;;
56997;SDS011;42890;44.244;22.530;2023-09-18T12:56:08;12.90;;;4.25;;
56997;SDS011;42890;44.244;22.530;2023-09-18T12:58:35;14.75;;;4.07;;
56997;SDS011;42890;44.244;22.530;2023-09-18T13:01:04;5.65;;;4.05;;
56997;SDS011;42890;44.244;22.530;2023-09-18T13:03:41;4.63;;;3.80;;
56997;SDS011;42890;44.244;22.530;2023-09-18T13:06:11;5.63;;;3.85;;
56997;SDS011;42890;44.244;22.530;2023-09-18T13:08:38;5.22;;;3.60;;
56997;SDS011;42890;44.244;22.530;2023-09-18T13:11:04;6.28;;;3.47;;
56997;SDS011;42890;44.244;22.530;2023-09-18T13:13:31;4.32;;;3.22;;
56997;SDS011;42890;44.244;22.530;2023-09-18T13:15:58;5.18;;;3.83;;
56997;SDS011;42890;44.244;22.530;2023-09-18T13:18:25;4.93;;;3.85;;
56997;SDS011;42890;44.244;22.530;2023-09-18T13:20:52;4.88;;;3.40;;
56997;SDS011;42890;44.244;22.530;2023-09-18T13:23:19;3.55;;;2.88;;
56997;SDS011;42890;44.244;22.530;2023-09-18T13:25:45;3.95;;;2.92;;
56997;SDS011;42890;44.244;22.530;2023-09-18T13:28:12;5.22;;;3.15;;
56997;SDS011;42890;44.244;22.530;2023-09-18T13:30:41;5.80;;;3.45;;
56997;SDS011;42890;44.244;22.530;2023-09-18T13:33:08;4.50;;;3.20;;
56997;SDS011;42890;44.244;22.530;2023-09-18T13:35:35;7.38;;;3.22;;
56997;SDS011;42890;44.244;22.530;2023-09-18T13:38:03;5.97;;;3.70;;
56997;SDS011;42890;44.244;22.530;2023-09-18T13:40:31;6.75;;;3.67;;
56997;SDS011;42890;44.244;22.530;2023-09-18T13:43:01;5.72;;;3.25;;
56997;SDS011;42890;44.244;22.530;2023-09-18T13:45:29;7.38;;;3.65;;
56997;SDS011;42890;44.244;22.530;2023-09-18T13:47:55;4.95;;;3.60;;
56997;SDS011;42890;44.244;22.530;2023-09-18T13:50:21;4.93;;;3.40;;
56997;SDS011;42890;44.244;22.530;2023-09-18T13:52:48;4.45;;;3.22;;
56997;SDS011;42890;44.244;22.530;2023-09-18T13:55:14;9.43;;;3.55;;
56997;SDS011;42890;44.244;22.530;2023-09-18T13:57:40;6.30;;;3.22;;
56997;SDS011;42890;44.244;22.530;2023-09-18T14:00:06;4.20;;;3.17;;
56997;SDS011;42890;44.244;22.530;2023-09-18T14:02:36;6.65;;;3.30;;
56997;SDS011;42890;44.244;22.530;2023-09-18T14:05:02;6.97;;;3.75;;
56997;SDS011;42890;44.244;22.530;2023-09-18T14:07:31;4.75;;;3.08;;
56997;SDS011;42890;44.244;22.530;2023-09-18T14:09:57;7.00;;;3.50;;
56997;SDS011;42890;44.244;22.530;2023-09-18T14:12:24;6.47;;;3.58;;
56997;SDS011;42890;44.244;22.530;2023-09-18T14:14:51;6.00;;;3.50;;
56997;SDS011;42890;44.244;22.530;2023-09-18T14:17:17;8.48;;;3.83;;
56997;SDS011;42890;44.244;22.530;2023-09-18T14:19:46;4.55;;;3.35;;
56997;SDS011;42890;44.244;22.530;2023-09-18T14:22:12;5.85;;;3.70;;
56997;SDS011;42890;44.244;22.530;2023-09-18T14:24:39;4.05;;;3.47;;
56997;SDS011;42890;44.244;22.530;2023-09-18T14:27:05;6.55;;;3.17;;
56997;SDS011;42890;44.244;22.530;2023-09-18T14:29:32;3.78;;;3.40;;
56997;SDS011;42890;44.244;22.530;2023-09-18T14:31:59;6.35;;;3.80;;
56997;SDS011;42890;44.244;22.530;2023-09-18T14:34:26;5.28;;;3.53;;
56997;SDS011;42890;44.244;22.530;2023-09-18T14:36:52;5.43;;;3.70;;
56997;SDS011;42890;44.244;22.530;2023-09-18T14:39:18;7.85;;;3.80;;
56997;SDS011;42890;44.244;22.530;2023-09-18T14:41:44;6.75;;;3.85;;
56997;SDS011;42890;44.244;22.530;2023-09-18T14:44:10;4.63;;;3.72;;
56997;SDS011;42890;44.244;22.530;2023-09-18T14:46:37;5.13;;;3.90;;